Time;durP1;ratioP1;P1;durP2;ratioP2;P2;SDS_P1;SDS_P2;PMS_P1;PMS_P2;Temp;Humidity;BMP_temperature;BMP_pressure;BME280_temperature;BME280_humidity;BME280_pressure;Samples;Min_cycle;Max_cycle;Signal;HPM_P1;HPM_P2
2022/04/30 00:00:29;;;;;;;14.82;7.18;;;6.50;99.90;;;;;;4917677;29;20110;-89
2022/04/30 00:02:59;;;;;;;15.32;6.53;;;6.50;99.90;;;;;;4926514;29;20063;-89
2022/04/30 00:05:25;;;;;;;13.77;6.40;;;6.40;99.90;;;;;;4917813;29;20126;-89
2022/04/30 00:07:51;;;;;;;14.00;6.32;;;6.40;99.90;;;;;;4929172;29;20064;-89
2022/04/30 00:10:17;;;;;;;15.23;10.93;;;6.40;99.90;;;;;;4913288;29;20047;-90
2022/04/30 00:12:42;;;;;;;13.25;6.78;;;6.50;99.90;;;;;;4932342;29;20403;-92
2022/04/30 00:15:09;;;;;;;12.38;6.50;;;6.40;99.90;;;;;;4934133;29;20050;-89
2022/04/30 00:17:34;;;;;;;12.75;6.55;;;6.40;99.90;;;;;;4900411;29;20538;-90
2022/04/30 00:20:00;;;;;;;14.13;6.78;;;6.30;99.90;;;;;;4943677;29;20039;-90
2022/04/30 00:22:26;;;;;;;18.45;6.80;;;6.30;99.90;;;;;;4935765;29;20098;-89
2022/04/30 00:24:51;;;;;;;18.67;11.90;;;6.30;99.90;;;;;;4952148;29;20043;-89
2022/04/30 00:27:20;;;;;;;13.02;6.35;;;6.40;99.90;;;;;;4934191;29;20047;-90
2022/04/30 00:29:46;;;;;;;14.70;6.57;;;6.30;99.90;;;;;;4936537;29;20392;-89
2022/04/30 00:32:13;;;;;;;13.85;7.25;;;6.30;99.90;;;;;;4953067;29;20044;-90
2022/04/30 00:34:38;;;;;;;15.13;7.97;;;6.30;99.90;;;;;;4934231;29;20528;-88
2022/04/30 00:37:04;;;;;;;16.95;11.38;;;6.30;99.90;;;;;;4926126;29;20043;-88
2022/04/30 00:39:31;;;;;;;15.43;7.03;;;6.30;99.90;;;;;;4942282;29;20108;-89
2022/04/30 00:41:56;;;;;;;16.98;7.13;;;6.30;99.90;;;;;;4934544;29;20086;-89
2022/04/30 00:44:22;;;;;;;16.35;6.65;;;6.20;99.90;;;;;;4952618;29;20043;-88
2022/04/30 00:46:48;;;;;;;13.68;7.97;;;6.20;99.90;;;;;;4933720;29;20047;-89
2022/04/30 00:49:14;;;;;;;13.95;7.05;;;6.20;99.90;;;;;;4934376;29;20320;-89
2022/04/30 00:51:41;;;;;;;14.25;7.07;;;6.20;99.90;;;;;;4948520;29;20047;-88
2022/04/30 00:54:07;;;;;;;14.20;7.13;;;6.20;99.90;;;;;;4944830;29;20102;-88
2022/04/30 00:56:38;;;;;;;14.32;7.55;;;6.10;99.90;;;;;;4918256;29;20101;-89
2022/04/30 00:59:06;;;;;;;13.48;6.70;;;6.10;99.90;;;;;;4917038;29;20051;-89
2022/04/30 01:01:33;;;;;;;12.95;6.93;;;6.10;99.90;;;;;;4951983;29;20051;-89
2022/04/30 01:03:59;;;;;;;16.27;6.05;;;6.10;99.90;;;;;;4951401;29;20051;-89
2022/04/30 01:06:57;;;;;;;12.98;5.60;;;6.10;99.90;;;;;;4935664;29;20464;-88
2022/04/30 01:09:28;;;;;;;17.77;7.45;;;6.10;99.90;;;;;;4938472;29;20036;-90
2022/04/30 01:12:08;;;;;;;17.23;8.48;;;6.00;99.90;;;;;;4933969;29;20054;-88
2022/04/30 01:14:34;;;;;;;12.75;6.45;;;6.00;99.90;;;;;;4901925;29;20040;-89
2022/04/30 01:17:06;;;;;;;17.10;7.47;;;6.00;99.90;;;;;;4926506;29;20061;-88
2022/04/30 01:19:35;;;;;;;15.20;7.78;;;6.00;99.90;;;;;;4932909;29;20062;-88
2022/04/30 01:22:08;;;;;;;14.95;7.65;;;6.00;99.90;;;;;;4933085;29;20047;-89
2022/04/30 01:24:35;;;;;;;13.32;6.35;;;6.00;99.90;;;;;;4932060;29;20051;-88
2022/04/30 01:27:04;;;;;;;15.38;7.05;;;5.90;99.90;;;;;;4914945;29;20382;-89
2022/04/30 01:29:33;;;;;;;16.25;8.20;;;6.00;99.90;;;;;;4933392;29;20066;-89
2022/04/30 01:37:36;;;;;;;14.07;6.72;;;5.90;99.90;;;;;;4949966;29;20062;-89
2022/04/30 01:40:08;;;;;;;14.02;6.75;;;5.90;99.90;;;;;;4951705;29;20039;-89
2022/04/30 01:42:46;;;;;;;15.38;6.90;;;5.90;99.90;;;;;;4934458;29;20047;-89
2022/04/30 01:45:14;;;;;;;13.13;6.35;;;5.90;99.90;;;;;;4951405;28;20106;-88
2022/04/30 01:47:41;;;;;;;13.63;7.75;;;5.80;99.90;;;;;;4950421;29;20039;-88
2022/04/30 01:50:08;;;;;;;13.57;7.00;;;5.80;99.90;;;;;;4950170;29;20057;-89
2022/04/30 01:52:33;;;;;;;13.80;7.53;;;5.80;99.90;;;;;;4921163;29;20047;-88
2022/04/30 01:54:59;;;;;;;11.35;6.35;;;5.80;99.90;;;;;;4943727;29;20050;-88
2022/04/30 01:57:28;;;;;;;13.93;6.40;;;5.70;99.90;;;;;;4944441;29;20580;-88
2022/04/30 01:59:55;;;;;;;11.73;6.20;;;5.80;99.90;;;;;;4951538;29;20058;-89
2022/04/30 02:02:24;;;;;;;15.25;8.27;;;5.70;99.90;;;;;;4947627;29;20047;-89
2022/04/30 02:04:55;;;;;;;16.00;7.85;;;5.70;99.90;;;;;;4950849;29;20408;-88
2022/04/30 02:07:22;;;;;;;15.32;6.20;;;5.80;99.90;;;;;;4951352;29;20074;-88
2022/04/30 02:09:51;;;;;;;16.35;7.70;;;5.70;99.90;;;;;;4951516;29;20047;-88
2022/04/30 02:12:17;;;;;;;14.65;7.13;;;5.70;99.90;;;;;;4933851;29;20412;-88
2022/04/30 02:14:50;;;;;;;12.70;6.55;;;5.70;99.90;;;;;;4951019;29;20039;-88
2022/04/30 02:17:17;;;;;;;13.45;6.32;;;5.70;99.90;;;;;;4932238;29;20114;-88
2022/04/30 02:22:30;;;;;;;13.48;6.18;;;5.70;99.90;;;;;;4915251;29;20051;-88
2022/04/30 02:24:57;;;;;;;14.45;7.45;;;5.60;99.90;;;;;;4931532;29;20051;-88
2022/04/30 02:27:24;;;;;;;15.50;7.38;;;5.70;99.90;;;;;;4950487;29;20043;-88
2022/04/30 02:29:50;;;;;;;13.70;7.30;;;5.60;99.90;;;;;;4950378;29;20385;-88
2022/04/30 02:32:17;;;;;;;14.35;7.47;;;5.60;99.90;;;;;;4923274;29;20055;-89
2022/04/30 02:34:42;;;;;;;15.48;6.20;;;5.60;99.90;;;;;;4922104;29;20103;-88
2022/04/30 02:37:14;;;;;;;16.48;7.82;;;5.60;99.90;;;;;;4950450;29;20137;-88
2022/04/30 02:39:43;;;;;;;14.63;7.40;;;5.60;99.90;;;;;;4957699;29;20051;-88
2022/04/30 02:42:09;;;;;;;15.65;7.78;;;5.60;99.90;;;;;;4952944;29;20086;-88
2022/04/30 02:44:34;;;;;;;13.88;7.95;;;5.60;99.90;;;;;;4942133;29;20047;-88
2022/04/30 02:47:00;;;;;;;14.82;7.70;;;5.60;99.90;;;;;;4952971;29;20047;-88
2022/04/30 02:49:25;;;;;;;14.27;6.70;;;5.60;99.90;;;;;;4942203;29;20043;-88
2022/04/30 02:51:51;;;;;;;15.50;6.80;;;5.60;99.90;;;;;;4955462;29;20047;-88
2022/04/30 02:54:16;;;;;;;16.58;7.63;;;5.60;99.90;;;;;;4938698;29;20050;-88
2022/04/30 02:56:42;;;;;;;13.50;6.88;;;5.60;99.90;;;;;;4944228;29;20404;-88
2022/04/30 03:01:53;;;;;;;20.23;8.48;;;5.60;99.90;;;;;;4936578;29;20066;-89
2022/04/30 03:04:18;;;;;;;14.07;6.72;;;5.60;99.90;;;;;;4952557;29;20059;-88
2022/04/30 03:06:46;;;;;;;15.18;7.50;;;5.60;99.90;;;;;;4920875;29;20050;-88
2022/04/30 03:09:12;;;;;;;17.08;7.47;;;5.60;99.90;;;;;;4937257;29;20089;-89
2022/04/30 03:11:37;;;;;;;19.05;9.07;;;5.60;99.90;;;;;;4929734;29;20087;-88
2022/04/30 03:14:03;;;;;;;14.70;6.95;;;5.60;99.90;;;;;;4930516;29;20042;-89
2022/04/30 03:21:57;;;;;;;14.68;7.15;;;5.60;99.90;;;;;;4935962;29;20047;-88
2022/04/30 03:24:24;;;;;;;14.32;7.22;;;5.60;99.90;;;;;;4918446;29;20047;-89
2022/04/30 03:26:50;;;;;;;13.45;7.60;;;5.60;99.90;;;;;;4930577;29;20047;-88
2022/04/30 03:29:16;;;;;;;16.42;8.05;;;5.60;99.90;;;;;;4953385;29;20074;-88
2022/04/30 03:31:42;;;;;;;14.75;7.30;;;5.60;99.90;;;;;;4935905;29;20484;-88
2022/04/30 03:34:15;;;;;;;20.98;10.52;;;5.60;99.90;;;;;;4919625;29;20043;-88
2022/04/30 03:36:42;;;;;;;15.18;9.27;;;5.60;99.90;;;;;;4949810;29;20118;-88
2022/04/30 03:39:08;;;;;;;16.70;7.95;;;5.60;99.90;;;;;;4931651;29;20700;-88
2022/04/30 03:41:33;;;;;;;14.02;7.88;;;5.60;99.90;;;;;;4951504;29;20051;-88
2022/04/30 03:44:00;;;;;;;16.25;7.47;;;5.60;99.90;;;;;;4919717;29;20094;-88
2022/04/30 03:46:26;;;;;;;16.35;8.45;;;5.50;99.90;;;;;;4928365;29;20091;-88
2022/04/30 03:48:53;;;;;;;16.35;7.88;;;5.60;99.90;;;;;;4930523;29;20129;-87
2022/04/30 03:51:23;;;;;;;12.98;6.22;;;5.60;99.90;;;;;;4935043;29;20086;-89
2022/04/30 03:53:49;;;;;;;12.57;7.65;;;5.50;99.90;;;;;;4919485;29;20073;-88
2022/04/30 03:56:19;;;;;;;14.82;7.07;;;5.50;99.90;;;;;;4920428;29;20391;-88
2022/04/30 03:58:47;;;;;;;13.38;7.47;;;5.50;99.90;;;;;;4953075;29;20062;-88
2022/04/30 04:01:14;;;;;;;13.15;6.70;;;5.50;99.90;;;;;;4952523;29;20050;-88
2022/04/30 04:03:40;;;;;;;13.13;7.20;;;5.40;99.90;;;;;;4935105;29;20484;-88
2022/04/30 04:06:09;;;;;;;14.32;8.43;;;5.40;99.90;;;;;;4952357;29;20059;-88
2022/04/30 04:08:35;;;;;;;14.85;8.43;;;5.40;99.90;;;;;;4924553;29;20484;-88
2022/04/30 04:11:02;;;;;;;14.27;8.15;;;5.40;99.90;;;;;;4934444;29;20043;-87
2022/04/30 04:18:56;;;;;;;12.30;7.28;;;5.40;99.90;;;;;;4951853;29;20051;-88
2022/04/30 04:21:25;;;;;;;12.57;6.68;;;5.40;99.90;;;;;;4933147;29;20039;-88
2022/04/30 04:26:35;;;;;;;15.88;7.53;;;5.40;99.90;;;;;;4938769;29;20074;-88
2022/04/30 04:29:01;;;;;;;14.15;7.25;;;5.40;99.90;;;;;;4952055;29;20078;-88
2022/04/30 04:31:27;;;;;;;14.63;7.32;;;5.40;99.90;;;;;;4951371;29;20043;-89
2022/04/30 04:33:52;;;;;;;14.68;7.50;;;5.50;99.90;;;;;;4951438;29;20475;-88
2022/04/30 04:36:18;;;;;;;14.82;8.75;;;5.50;99.90;;;;;;4934719;29;20043;-88
2022/04/30 04:38:44;;;;;;;15.85;6.82;;;5.50;99.90;;;;;;4940621;29;20035;-89
2022/04/30 04:41:10;;;;;;;13.80;7.47;;;5.50;99.90;;;;;;4955969;29;20055;-88
2022/04/30 04:43:36;;;;;;;13.65;7.82;;;5.50;99.90;;;;;;4934371;29;20050;-92
2022/04/30 04:46:06;;;;;;;13.63;7.63;;;5.50;99.90;;;;;;4932600;29;20053;-94
2022/04/30 04:48:32;;;;;;;16.67;8.55;;;5.60;99.90;;;;;;4939044;29;20055;-93
2022/04/30 04:50:58;;;;;;;15.45;7.78;;;5.60;99.90;;;;;;4929483;29;20055;-92
2022/04/30 04:53:24;;;;;;;15.18;8.90;;;5.60;99.90;;;;;;4954112;29;20054;-92
2022/04/30 04:55:50;;;;;;;17.90;8.80;;;5.60;99.90;;;;;;4954414;29;20665;-94
2022/04/30 04:58:15;;;;;;;16.67;9.10;;;5.60;99.90;;;;;;4940322;29;20051;-94
2022/04/30 05:00:41;;;;;;;13.65;8.48;;;5.70;99.90;;;;;;4976396;23;20043;-94
2022/04/30 05:03:08;;;;;;;18.73;9.65;;;5.70;99.90;;;;;;5340844;23;20030;-90
2022/04/30 05:05:35;;;;;;;14.93;8.70;;;5.80;99.90;;;;;;4978004;28;20054;-89
2022/04/30 05:08:00;;;;;;;19.33;13.00;;;5.80;99.90;;;;;;4958258;28;20632;-90
2022/04/30 05:10:26;;;;;;;14.10;8.13;;;5.90;99.90;;;;;;4999936;23;20058;-95
2022/04/30 05:12:52;;;;;;;16.08;7.97;;;5.80;99.90;;;;;;5349592;23;20349;-93
2022/04/30 05:15:18;;;;;;;15.82;8.75;;;5.90;99.90;;;;;;5688524;23;20132;-95
2022/04/30 05:20:25;;;;;;;17.90;9.15;;;6.00;99.90;;;;;;5027161;23;20040;-91
2022/04/30 05:22:51;;;;;;;15.50;7.93;;;6.10;99.90;;;;;;4962447;23;20031;-95
2022/04/30 05:28:15;;;;;;;15.52;10.02;;;6.10;99.90;;;;;;1649944;23;20265;-93
2022/04/30 05:30:41;;;;;;;14.30;8.07;;;6.20;99.90;;;;;;4999785;23;20199;-93
2022/04/30 05:33:07;;;;;;;15.93;9.05;;;6.30;99.90;;;;;;5452877;23;20094;-94
2022/04/30 05:35:33;;;;;;;16.80;8.05;;;6.40;99.90;;;;;;4953291;29;20079;-95
2022/04/30 05:37:58;;;;;;;15.48;9.18;;;6.40;99.90;;;;;;5071363;23;20055;-94
2022/04/30 05:45:44;;;;;;;17.10;8.80;;;6.80;99.90;;;;;;5113981;23;20062;-95
2022/04/30 05:48:09;;;;;;;16.70;12.05;;;6.80;99.90;;;;;;4994663;28;20027;-96
2022/04/30 05:50:35;;;;;;;17.85;9.48;;;6.90;99.90;;;;;;5548107;23;20136;-93
2022/04/30 05:53:00;;;;;;;16.33;8.73;;;7.00;99.90;;;;;;5609332;23;20035;-95
2022/04/30 05:55:26;;;;;;;16.27;9.93;;;7.00;99.90;;;;;;5235982;23;20047;-93
2022/04/30 05:57:52;;;;;;;15.00;9.07;;;7.00;99.90;;;;;;4962934;29;20059;-94
2022/04/30 06:08:24;;;;;;;14.40;8.63;;;7.30;99.90;;;;;;5864769;23;20050;-95
2022/04/30 06:10:49;;;;;;;15.52;9.05;;;7.30;99.90;;;;;;4975931;28;20055;-91
2022/04/30 06:13:15;;;;;;;16.02;8.25;;;7.40;99.90;;;;;;4936479;28;20050;-96
2022/04/30 06:15:41;;;;;;;13.93;11.30;;;7.40;99.90;;;;;;4969945;28;20097;-90
2022/04/30 06:18:08;;;;;;;14.15;10.93;;;7.50;99.90;;;;;;4954132;28;20047;-90
2022/04/30 06:20:34;;;;;;;14.93;11.15;;;7.70;99.90;;;;;;4960867;28;20051;-89
2022/04/30 06:23:00;;;;;;;15.57;11.27;;;7.70;99.90;;;;;;4969451;28;20049;-90
2022/04/30 06:25:26;;;;;;;14.00;11.55;;;7.90;99.90;;;;;;4952594;28;20046;-93
2022/04/30 06:27:52;;;;;;;15.20;9.77;;;8.00;99.90;;;;;;4936464;28;20050;-92
2022/04/30 06:30:18;;;;;;;14.35;11.45;;;8.00;99.90;;;;;;4968775;28;20046;-92
2022/04/30 06:32:43;;;;;;;16.40;11.80;;;8.10;99.90;;;;;;4941011;28;20074;-94
2022/04/30 06:35:09;;;;;;;14.32;11.75;;;8.20;99.90;;;;;;4942437;28;20080;-93
2022/04/30 06:37:35;;;;;;;15.15;10.98;;;8.30;99.90;;;;;;4980566;28;20073;-92
2022/04/30 06:40:00;;;;;;;14.82;11.93;;;8.50;99.90;;;;;;4930614;29;20035;-93
2022/04/30 06:42:26;;;;;;;16.65;11.68;;;8.60;99.90;;;;;;4970273;28;20043;-92
2022/04/30 06:44:52;;;;;;;13.80;11.10;;;8.60;99.90;;;;;;4974596;28;20101;-92
2022/04/30 06:47:21;;;;;;;16.33;11.95;;;8.70;99.90;;;;;;4974102;28;20038;-90
2022/04/30 06:49:46;;;;;;;13.05;11.07;;;8.80;99.90;;;;;;4957635;28;20043;-91
2022/04/30 06:52:12;;;;;;;18.30;11.52;;;8.90;99.90;;;;;;4956540;28;20130;-90
2022/04/30 06:57:22;;;;;;;13.77;10.60;;;9.00;99.90;;;;;;4971345;28;20050;-93
2022/04/30 06:59:51;;;;;;;13.80;10.75;;;9.20;99.90;;;;;;4953767;28;20035;-91
2022/04/30 07:02:18;;;;;;;13.60;10.55;;;9.20;99.90;;;;;;4976235;28;20039;-92
2022/04/30 07:04:48;;;;;;;13.85;10.38;;;9.30;99.90;;;;;;4960771;28;20114;-95
2022/04/30 07:07:15;;;;;;;14.95;10.55;;;9.30;99.90;;;;;;4974348;28;20039;-94
2022/04/30 07:09:41;;;;;;;13.68;9.93;;;9.30;99.90;;;;;;4973112;28;20051;-91
2022/04/30 07:12:09;;;;;;;14.77;10.50;;;9.40;99.90;;;;;;4930107;28;20050;-92
2022/04/30 07:14:36;;;;;;;14.45;10.75;;;9.40;99.90;;;;;;4947768;28;20408;-87
2022/04/30 07:17:09;;;;;;;14.65;10.13;;;9.40;99.90;;;;;;4956307;28;20051;-88
2022/04/30 07:19:35;;;;;;;14.63;10.05;;;9.50;99.90;;;;;;4924859;28;20054;-88
2022/04/30 07:22:02;;;;;;;13.68;9.93;;;9.60;99.90;;;;;;4954700;28;20035;-86
2022/04/30 07:24:28;;;;;;;11.77;9.23;;;9.60;99.90;;;;;;4942684;28;20039;-89
2022/04/30 07:26:54;;;;;;;12.63;9.30;;;9.70;99.90;;;;;;4955588;28;20045;-91
2022/04/30 07:29:19;;;;;;;12.07;9.25;;;9.80;99.90;;;;;;4956892;28;20094;-91
2022/04/30 07:31:45;;;;;;;14.23;10.18;;;9.80;99.90;;;;;;4940638;28;20043;-90
2022/04/30 07:34:11;;;;;;;12.55;8.65;;;9.80;99.90;;;;;;4956702;28;20082;-93
2022/04/30 07:36:37;;;;;;;15.32;10.32;;;9.90;99.90;;;;;;4955976;28;20039;-91
2022/04/30 07:39:03;;;;;;;12.90;9.93;;;10.00;99.90;;;;;;4940060;28;20043;-91
2022/04/30 07:41:29;;;;;;;13.20;9.48;;;10.00;99.90;;;;;;4973711;28;20073;-91
2022/04/30 07:43:54;;;;;;;11.35;9.10;;;10.00;99.90;;;;;;4956205;28;20043;-90
2022/04/30 07:46:22;;;;;;;13.98;9.88;;;10.00;99.90;;;;;;4973502;28;20101;-90
2022/04/30 07:48:48;;;;;;;16.23;10.18;;;10.20;99.90;;;;;;4955854;28;20050;-93
2022/04/30 07:51:16;;;;;;;13.05;9.15;;;10.30;99.90;;;;;;4973707;28;20046;-90
2022/04/30 07:53:42;;;;;;;13.70;10.43;;;10.30;99.90;;;;;;4939757;28;20129;-91
2022/04/30 07:56:09;;;;;;;12.52;8.88;;;10.40;99.90;;;;;;4955951;28;20105;-89
2022/04/30 07:58:34;;;;;;;12.02;8.48;;;10.50;99.90;;;;;;4955697;28;20055;-91
2022/04/30 08:01:00;;;;;;;11.52;8.00;;;10.60;99.90;;;;;;4939697;28;20051;-90
2022/04/30 08:03:25;;;;;;;12.32;7.50;;;10.70;99.90;;;;;;4973280;28;20083;-92
2022/04/30 08:05:51;;;;;;;10.73;7.65;;;10.70;99.90;;;;;;4973226;28;20121;-90
2022/04/30 08:08:16;;;;;;;12.55;8.50;;;10.80;99.90;;;;;;4972624;28;20388;-90
2022/04/30 08:10:42;;;;;;;11.80;7.47;;;10.90;99.90;;;;;;4973110;28;20389;-90
2022/04/30 08:13:08;;;;;;;14.85;7.40;;;10.90;99.90;;;;;;4955639;28;20059;-92
2022/04/30 08:15:34;;;;;;;10.95;7.50;;;11.00;99.90;;;;;;4956819;28;20039;-90
2022/04/30 08:18:00;;;;;;;12.10;7.03;;;11.10;99.90;;;;;;4973182;28;20053;-89
2022/04/30 08:20:28;;;;;;;9.43;6.50;;;11.10;99.90;;;;;;4962342;28;20039;-91
2022/04/30 08:22:54;;;;;;;10.27;6.50;;;11.20;99.90;;;;;;4935696;29;20048;-90
2022/04/30 08:25:19;;;;;;;9.13;5.90;;;11.30;99.90;;;;;;4935976;29;20399;-90
2022/04/30 08:27:45;;;;;;;10.13;6.03;;;11.40;99.90;;;;;;4951779;29;20093;-90
2022/04/30 08:30:11;;;;;;;11.40;6.10;;;11.40;99.90;;;;;;4936758;29;20063;-91
2022/04/30 08:32:36;;;;;;;8.80;6.03;;;11.50;99.90;;;;;;4936517;29;20393;-90
2022/04/30 08:35:03;;;;;;;12.82;6.22;;;11.60;99.90;;;;;;4949892;29;20051;-89
2022/04/30 08:37:29;;;;;;;9.57;5.43;;;11.70;99.90;;;;;;4941783;29;20074;-91
2022/04/30 08:39:54;;;;;;;10.48;5.55;;;11.90;99.90;;;;;;4937293;29;20039;-89
2022/04/30 08:42:23;;;;;;;8.82;5.97;;;12.00;99.90;;;;;;4936904;29;20051;-91
2022/04/30 08:44:49;;;;;;;9.68;5.82;;;12.20;99.90;;;;;;4942997;29;20054;-88
2022/04/30 08:47:14;;;;;;;9.93;5.57;;;12.30;99.90;;;;;;4948514;29;20047;-89
2022/04/30 08:49:42;;;;;;;11.30;5.80;;;12.30;99.90;;;;;;4938842;29;20054;-89
2022/04/30 08:52:09;;;;;;;9.95;5.60;;;12.40;99.90;;;;;;4953755;28;20090;-89
2022/04/30 08:54:35;;;;;;;10.93;5.80;;;12.50;99.90;;;;;;4965971;28;20043;-88
2022/04/30 08:57:00;;;;;;;9.75;6.00;;;12.50;99.90;;;;;;4966123;28;20473;-90
2022/04/30 08:59:27;;;;;;;12.00;6.25;;;12.50;99.90;;;;;;4954828;29;20055;-87
2022/04/30 09:01:58;;;;;;;9.52;5.88;;;12.30;99.90;;;;;;4958103;29;20047;-91
2022/04/30 09:04:25;;;;;;;9.48;5.40;;;12.30;99.90;;;;;;4955166;29;20047;-94
2022/04/30 09:06:53;;;;;;;10.90;6.65;;;12.30;99.90;;;;;;4936710;29;20054;-91
2022/04/30 09:09:28;;;;;;;11.05;6.10;;;12.10;99.90;;;;;;4952203;28;20055;-89
2022/04/30 09:12:05;;;;;;;9.48;6.10;;;12.00;99.90;;;;;;4952774;29;20431;-90
2022/04/30 09:14:31;;;;;;;10.20;6.15;;;11.90;99.90;;;;;;4935400;29;20070;-91
2022/04/30 09:17:13;;;;;;;9.57;6.22;;;11.90;99.90;;;;;;4935071;29;20134;-90
2022/04/30 09:19:50;;;;;;;10.93;6.22;;;11.90;99.90;;;;;;4952087;29;20118;-93
2022/04/30 09:22:16;;;;;;;10.48;6.70;;;12.00;99.90;;;;;;4952074;29;20047;-90
2022/04/30 09:24:50;;;;;;;8.98;5.72;;;12.10;99.90;;;;;;4934925;29;20445;-89
2022/04/30 09:27:16;;;;;;;10.20;6.18;;;12.10;99.90;;;;;;4952782;29;20131;-90
2022/04/30 09:29:43;;;;;;;12.35;6.30;;;12.20;99.90;;;;;;4919518;29;20392;-90
2022/04/30 09:32:14;;;;;;;9.88;5.95;;;12.30;99.90;;;;;;4952559;29;20051;-90
2022/04/30 09:37:52;;;;;;;12.15;6.80;;;12.30;99.90;;;;;;4952700;29;20047;-90
2022/04/30 09:40:19;;;;;;;9.57;6.88;;;12.30;99.90;;;;;;4952641;29;20460;-89
2022/04/30 09:42:46;;;;;;;9.70;6.47;;;12.40;99.90;;;;;;4951848;29;20355;-89
2022/04/30 09:45:31;;;;;;;9.65;7.22;;;12.40;99.90;;;;;;4934802;29;20054;-90
2022/04/30 09:47:58;;;;;;;8.77;5.55;;;12.50;99.90;;;;;;4944033;28;20074;-88
2022/04/30 09:55:59;;;;;;;10.27;5.90;;;12.70;99.90;;;;;;4940813;28;20125;-88
2022/04/30 09:58:27;;;;;;;14.53;7.70;;;12.70;99.90;;;;;;4951745;28;20039;-88
2022/04/30 10:00:55;;;;;;;10.38;6.30;;;12.80;99.90;;;;;;4934059;29;20297;-89
2022/04/30 10:03:26;;;;;;;10.90;6.05;;;12.80;99.90;;;;;;4918467;29;20047;-88
2022/04/30 10:06:00;;;;;;;9.30;6.45;;;12.90;99.90;;;;;;4949498;28;20039;-88
2022/04/30 10:08:27;;;;;;;10.93;6.47;;;12.80;99.90;;;;;;4952175;28;20085;-87
2022/04/30 10:11:14;;;;;;;10.43;6.40;;;13.00;99.90;;;;;;4967723;28;21622;-88
2022/04/30 10:13:47;;;;;;;10.23;6.22;;;13.00;99.90;;;;;;4970654;28;20082;-91
2022/04/30 10:16:19;;;;;;;10.20;6.00;;;13.20;99.90;;;;;;4948771;28;20035;-86
2022/04/30 10:18:50;;;;;;;10.90;6.18;;;13.20;99.90;;;;;;4957409;28;20056;-89
2022/04/30 10:21:18;;;;;;;10.20;6.45;;;13.30;99.90;;;;;;4968237;28;20168;-91
2022/04/30 10:23:44;;;;;;;11.00;6.47;;;13.40;99.90;;;;;;4938003;29;20370;-90
2022/04/30 10:26:09;;;;;;;10.13;6.47;;;13.70;99.90;;;;;;4955127;28;20058;-90
2022/04/30 10:28:35;;;;;;;9.90;6.90;;;14.00;99.90;;;;;;4970385;28;20046;-89
2022/04/30 10:31:03;;;;;;;9.18;5.70;;;14.10;99.90;;;;;;4975429;28;20419;-87
2022/04/30 10:33:29;;;;;;;8.82;5.50;;;14.20;99.90;;;;;;4981816;28;20051;-89
2022/04/30 10:36:06;;;;;;;8.80;5.40;;;14.10;99.90;;;;;;4971271;28;20479;-88
2022/04/30 10:38:33;;;;;;;9.70;5.50;;;13.90;99.90;;;;;;4936145;28;20043;-88
2022/04/30 10:41:00;;;;;;;8.77;5.20;;;13.80;99.90;;;;;;4968539;28;20087;-90
2022/04/30 10:43:42;;;;;;;8.68;5.20;;;13.70;99.90;;;;;;4951989;28;20074;-87
2022/04/30 10:46:14;;;;;;;9.45;4.65;;;13.60;99.90;;;;;;4953576;28;20404;-87
2022/04/30 10:48:40;;;;;;;9.23;4.78;;;13.50;99.90;;;;;;4962323;28;20054;-87
2022/04/30 10:51:07;;;;;;;8.30;4.50;;;13.50;99.90;;;;;;4956364;28;20110;-89
2022/04/30 10:53:34;;;;;;;9.80;5.00;;;13.40;99.90;;;;;;4932433;28;20369;-88
2022/04/30 10:56:02;;;;;;;8.85;4.60;;;13.20;99.90;;;;;;4950268;28;20042;-88
2022/04/30 10:58:28;;;;;;;10.27;5.13;;;13.10;99.90;;;;;;4970065;28;20121;-88
2022/04/30 11:00:54;;;;;;;8.82;5.15;;;13.00;99.90;;;;;;4935770;28;20118;-88
2022/04/30 11:03:30;;;;;;;10.02;5.40;;;12.90;99.90;;;;;;4952494;28;20039;-88
2022/04/30 11:05:56;;;;;;;8.38;5.07;;;12.90;99.90;;;;;;4950695;28;20082;-88
2022/04/30 11:08:22;;;;;;;10.20;5.18;;;12.80;99.90;;;;;;4952674;28;20073;-90
2022/04/30 11:10:55;;;;;;;10.05;5.25;;;12.70;99.90;;;;;;4947508;28;20047;-89
2022/04/30 11:13:21;;;;;;;9.30;4.68;;;12.60;99.90;;;;;;4952358;28;20086;-86
2022/04/30 11:15:47;;;;;;;8.27;4.28;;;12.50;99.90;;;;;;4948039;28;20098;-85
2022/04/30 11:18:17;;;;;;;8.85;4.45;;;12.40;99.90;;;;;;4968390;28;20047;-85
2022/04/30 11:20:42;;;;;;;9.05;4.88;;;12.30;99.90;;;;;;4939752;28;20051;-86
2022/04/30 11:23:08;;;;;;;8.95;5.10;;;12.30;99.90;;;;;;4955442;28;20051;-86
2022/04/30 11:25:38;;;;;;;8.65;4.90;;;12.30;99.90;;;;;;4954060;28;20101;-86
2022/04/30 11:28:09;;;;;;;8.35;4.63;;;12.30;99.90;;;;;;4944119;28;20039;-87
2022/04/30 11:30:36;;;;;;;9.45;4.85;;;12.30;99.90;;;;;;4954231;28;20061;-86
2022/04/30 11:33:03;;;;;;;9.35;4.55;;;12.40;99.90;;;;;;4960728;28;20043;-89
2022/04/30 11:35:28;;;;;;;7.50;4.40;;;12.40;99.90;;;;;;4942812;28;20031;-89
2022/04/30 11:37:54;;;;;;;8.90;5.00;;;12.40;99.90;;;;;;4931846;28;20419;-90
2022/04/30 11:40:22;;;;;;;9.18;4.85;;;12.40;99.90;;;;;;4975992;28;20101;-89
2022/04/30 11:42:57;;;;;;;7.88;4.80;;;12.40;99.90;;;;;;4964365;28;20090;-88
2022/04/30 11:45:25;;;;;;;9.13;5.22;;;12.40;99.90;;;;;;4938382;29;20043;-88
2022/04/30 11:47:51;;;;;;;9.80;5.35;;;12.50;99.90;;;;;;4981426;28;20130;-87
2022/04/30 11:50:17;;;;;;;11.02;5.10;;;12.60;99.90;;;;;;4965023;28;20077;-89
2022/04/30 11:52:43;;;;;;;10.02;5.35;;;12.50;99.90;;;;;;4973123;28;20043;-87
2022/04/30 11:55:09;;;;;;;8.15;5.07;;;12.60;99.90;;;;;;4969317;28;20121;-88
2022/04/30 11:57:40;;;;;;;9.85;5.40;;;12.50;99.90;;;;;;4952877;28;20054;-87
2022/04/30 12:00:07;;;;;;;9.75;5.13;;;12.50;99.90;;;;;;4955062;28;20086;-88
2022/04/30 12:02:33;;;;;;;9.70;5.70;;;12.50;99.90;;;;;;4954281;28;20094;-87
2022/04/30 12:05:06;;;;;;;8.85;5.80;;;12.50;99.90;;;;;;4970701;28;20134;-87
2022/04/30 12:07:40;;;;;;;11.90;6.55;;;12.50;99.90;;;;;;4955373;28;20050;-87
2022/04/30 12:10:20;;;;;;;10.00;6.15;;;12.40;99.90;;;;;;4970072;28;20059;-87
2022/04/30 12:12:47;;;;;;;11.75;6.35;;;12.50;99.90;;;;;;4933956;28;20109;-86
2022/04/30 12:15:23;;;;;;;10.38;6.50;;;12.40;99.90;;;;;;4938027;28;20388;-87
2022/04/30 12:24:40;;;;;;;11.60;7.47;;;12.40;99.90;;;;;;4949259;28;20046;-88
2022/04/30 12:26:13;;;;;;;10.77;6.45;;;12.20;99.90;;;;;;4949211;28;20404;-88
2022/04/30 12:28:47;;;;;;;10.48;6.53;;;12.10;99.90;;;;;;4964269;28;20399;-87
2022/04/30 12:31:14;;;;;;;10.88;6.85;;;12.20;99.90;;;;;;4968017;28;20488;-88
2022/04/30 12:33:45;;;;;;;10.50;6.43;;;12.10;99.90;;;;;;4941938;29;20039;-88
2022/04/30 12:36:12;;;;;;;9.98;6.32;;;12.10;99.90;;;;;;4965975;28;20039;-87
2022/04/30 12:38:38;;;;;;;10.65;6.35;;;12.00;99.90;;;;;;4960256;28;20053;-87
2022/04/30 12:41:06;;;;;;;13.05;6.38;;;12.00;99.90;;;;;;4945282;28;20404;-87
2022/04/30 12:43:36;;;;;;;10.43;6.07;;;12.00;99.90;;;;;;4935315;29;20047;-88
2022/04/30 12:46:02;;;;;;;9.65;5.88;;;12.00;99.90;;;;;;4925838;28;20380;-90
2022/04/30 12:48:28;;;;;;;11.20;6.40;;;11.90;99.90;;;;;;4948342;29;20039;-87
2022/04/30 12:50:54;;;;;;;12.02;6.82;;;11.90;99.90;;;;;;4920166;28;20054;-88
2022/04/30 12:53:20;;;;;;;9.98;6.22;;;11.90;99.90;;;;;;4948681;28;20051;-88
2022/04/30 12:55:47;;;;;;;9.80;6.43;;;11.90;99.90;;;;;;4971403;28;20123;-86
2022/04/30 12:58:13;;;;;;;11.00;6.30;;;11.90;99.90;;;;;;4970986;28;20043;-88
2022/04/30 13:00:38;;;;;;;9.10;5.70;;;11.90;99.90;;;;;;4938124;28;20093;-90
2022/04/30 13:03:05;;;;;;;9.23;5.95;;;11.90;99.90;;;;;;4954248;28;20091;-89
2022/04/30 13:05:31;;;;;;;10.60;6.15;;;11.90;99.90;;;;;;4909788;29;20039;-88
2022/04/30 13:07:56;;;;;;;9.10;6.03;;;11.90;99.90;;;;;;4934813;29;20047;-87
2022/04/30 13:15:50;;;;;;;8.38;5.70;;;11.90;99.90;;;;;;4934771;28;20096;-88
2022/04/30 13:18:16;;;;;;;9.63;6.38;;;11.90;99.90;;;;;;4933962;28;20400;-87
2022/04/30 13:20:43;;;;;;;9.10;5.15;;;11.90;99.90;;;;;;4952306;28;20078;-86
2022/04/30 13:23:09;;;;;;;8.35;5.50;;;11.90;99.90;;;;;;4971490;28;20662;-90
2022/04/30 13:25:39;;;;;;;11.07;5.20;;;11.90;99.90;;;;;;4940318;28;20605;-87
2022/04/30 13:28:06;;;;;;;9.15;5.45;;;11.90;99.90;;;;;;4928176;28;20050;-88
2022/04/30 13:30:32;;;;;;;8.93;5.28;;;11.90;99.90;;;;;;4950800;28;20069;-89
2022/04/30 13:32:58;;;;;;;9.82;5.70;;;12.00;99.90;;;;;;4969424;28;20118;-88
2022/04/30 13:35:24;;;;;;;7.03;4.53;;;12.10;99.90;;;;;;4940043;28;20065;-88
2022/04/30 13:37:51;;;;;;;9.30;5.10;;;12.10;99.90;;;;;;4925572;29;20491;-89
2022/04/30 13:40:18;;;;;;;8.45;5.40;;;12.10;99.90;;;;;;4967391;28;20046;-89
2022/04/30 13:42:44;;;;;;;9.75;5.20;;;12.10;99.90;;;;;;4951340;28;20051;-89
2022/04/30 13:45:12;;;;;;;8.52;5.60;;;12.10;99.90;;;;;;4951802;28;20133;-90
2022/04/30 13:47:38;;;;;;;11.98;5.50;;;12.10;99.90;;;;;;4952555;28;20039;-88
2022/04/30 13:50:05;;;;;;;9.27;5.53;;;12.20;99.90;;;;;;4946711;28;20496;-88